Terminal Aerodrome Forecast
Issued by NWS Binghamton, NY

Home | Current Version | Previous Version | Text Only | Print | Product List | Glossary On
Versions: 1 2 3 4 5 6 7 8 9 10 11 12 13 14 15 16 17 18 19 20 21 22 23 24 25 26 27
000
FTUS41 KBGM 010900 AAB
TAFAVP
TAF AMD
KAVP 010909Z 0109/0206 24004KT P6SM OVC025
     FM011800 29005KT 2SM -SN OVC015
     FM020000 09004KT 1SM -SN OVC015=

USA.gov is the U.S. government's official web portal to all federal, state and local government web resources and services.